Observations for LIVERPOOL AIRPORT, United Kingdom (EGGP)

EGGP 261920Z 08016KT CAVOK 20/08 Q1021  
EGGP 261850Z 08016KT CAVOK 19/07 Q1021  
EGGP 261820Z 08017KT CAVOK 20/07 Q1021  
EGGP 261750Z 07019KT CAVOK 21/08 Q1021  
EGGP 261720Z 08023KT CAVOK 21/08 Q1021  
EGGP 261650Z 07021KT CAVOK 22/08 Q1021  
EGGP 261620Z 08020G31KT CAVOK 22/09 Q1021   
EGGP 261550Z 08020KT CAVOK 22/10 Q1021  
EGGP 261520Z 08020KT CAVOK 22/11 Q1022  
EGGP 261450Z 08020KT CAVOK 21/11 Q1022  
EGGP 261420Z 08020KT CAVOK 22/13 Q1022  
EGGP 261350Z 08018KT CAVOK 21/13 Q1022  
EGGP 261320Z 07019KT CAVOK 21/12 Q1022  
EGGP 261250Z 08017KT CAVOK 22/13 Q1022  
EGGP 261220Z 08014KT CAVOK 21/12 Q1022  
EGGP 261150Z 07013KT CAVOK 20/13 Q1022  
EGGP 261120Z 06013KT CAVOK 19/12 Q1023  
EGGP 261050Z 08013KT 9999 FEW046 18/12 Q1023
EGGP 261020Z 07012KT 9999 FEW020 18/12 Q1023
EGGP 260950Z 07010KT CAVOK 17/12 Q1023  
EGGP 260920Z 07009KT 030V100 CAVOK 18/12 Q1023  
EGGP 260850Z 05008KT 020V080 9999 FEW012 SCT019 17/13 Q1023 
EGGP 260820Z 06011KT 9999 FEW012 SCT019 15/11 Q1023 
EGGP 260750Z 06012KT 9999 FEW012 SCT019 15/12 Q1023 
EGGP 260720Z 05012KT 9999 FEW020 14/11 Q1023
EGGP 260650Z 06010KT 9999 FEW014 SCT025 14/11 Q1023 
EGGP 260620Z 05007KT 9999 FEW025 14/12 Q1022
EGGP 260550Z 05005KT 330V070 9999 FEW025 13/12 Q1022
EGGP 260520Z 03005KT 350V060 9999 FEW025 12/11 Q1022
EGGP 260450Z 04005KT 9999 FEW021 12/11 Q1022
EGGP 260420Z 05005KT 9000 FEW021 SCT026 12/11 Q1022 
EGGP 260350Z 06007KT 9000 BKN012 BKN015 12/11 Q1022 
EGGP 260320Z 03005KT 8000 BKN012 BKN015 13/11 Q1022 
EGGP 260250Z VRB03KT 8000 BKN012 OVC014 14/13 Q1022 
EGGP 260220Z 02004KT 8000 BKN012 OVC014 13/12 Q1022 
EGGP 260150Z 05007KT 8000 BKN012 OVC013 14/12 Q1022 
EGGP 260120Z 06005KT 8000 BKN012 OVC013 14/13 Q1022 
EGGP 260050Z 06007KT 030V100 8000 BKN012 OVC013 14/12 Q1022 
EGGP 260020Z 06009KT 8000 BKN012 OVC013 14/12 Q1022 
EGGP 252350Z 06009KT 8000 BKN012 OVC013 14/13 Q1022 
EGGP 252320Z 06009KT 8000 BKN013 OVC015 13/12 Q1022 
EGGP 252250Z 05013KT 8000 BKN012 OVC014 14/12 Q1021 
EGGP 252220Z 05012KT 9000 BKN012 OVC014 14/12 Q1021 
EGGP 252150Z 05013KT 8000 BKN008 OVC011 15/13 Q1021 
EGGP 252120Z 05011KT 7000 BKN008 OVC011 14/12 Q1021 
EGGP 252050Z 04012KT 7000 BKN008 OVC011 14/13 Q1021 
EGGP 252020Z 05013KT 7000 BKN008 OVC011 14/13 Q1021 
EGGP 251950Z 05012KT 9000 FEW010 SCT023 14/13 Q1021 
EGGP 251920Z 05012KT 9999 FEW012 SCT023 15/13 Q1020 
EGGP 251850Z 05014KT 9999 FEW012 SCT024 15/13 Q1020